createdAt,value
2022-09-14T00:02:18.243Z,2.95
2022-09-14T00:05:22.063Z,3.90
2022-09-14T00:08:25.478Z,4.00
2022-09-14T00:11:31.754Z,3.60
2022-09-14T00:14:35.713Z,4.03
2022-09-14T00:17:38.981Z,4.63
2022-09-14T00:20:43.445Z,4.37
2022-09-14T00:23:47.693Z,4.27
2022-09-14T00:26:52.399Z,4.05
2022-09-14T00:29:56.326Z,4.38
2022-09-14T00:32:59.827Z,4.82
2022-09-14T00:36:11.693Z,3.77
2022-09-14T00:39:18.263Z,2.93
2022-09-14T00:42:21.748Z,2.47
2022-09-14T00:45:26.919Z,2.83
2022-09-14T00:48:31.553Z,2.65
2022-09-14T00:51:39.079Z,2.87
2022-09-14T00:54:59.874Z,4.57
2022-09-14T00:58:03.857Z,3.33
2022-09-14T01:01:09.066Z,4.75
2022-09-14T01:04:12.487Z,5.60
2022-09-14T01:07:40.361Z,3.23
2022-09-14T01:11:08.202Z,3.97
2022-09-14T01:14:45.421Z,4.38
2022-09-14T01:18:10.261Z,4.13
2022-09-14T01:21:16.134Z,3.80
2022-09-14T01:24:28.973Z,3.20
2022-09-14T01:27:37.093Z,3.00
2022-09-14T01:30:42.901Z,2.88
2022-09-14T01:34:06.429Z,3.00
2022-09-14T01:37:19.805Z,3.30
2022-09-14T01:40:44.101Z,4.00
2022-09-14T01:43:54.556Z,4.23
2022-09-14T01:47:08.115Z,5.18
2022-09-14T01:50:18.730Z,4.72
2022-09-14T01:53:24.705Z,3.42
2022-09-14T01:56:36.241Z,3.37
2022-09-14T01:59:46.730Z,4.10
2022-09-14T02:02:57.341Z,3.75
2022-09-14T02:06:30.686Z,3.30
2022-09-14T02:09:34.701Z,3.20
2022-09-14T02:12:39.853Z,4.07
2022-09-14T02:15:42.901Z,4.20
2022-09-14T02:18:46.675Z,4.88
2022-09-14T02:21:50.478Z,4.63
2022-09-14T02:24:55.571Z,3.80
2022-09-14T02:27:59.632Z,5.03
2022-09-14T02:31:17.514Z,5.60
2022-09-14T02:34:34.949Z,4.78
2022-09-14T02:37:38.923Z,2.83
2022-09-14T02:41:20.063Z,2.90
2022-09-14T02:44:48.080Z,3.20
2022-09-14T02:48:02.967Z,3.43
2022-09-14T02:51:20.427Z,3.28
2022-09-14T02:54:27.809Z,3.53
2022-09-14T02:57:32.024Z,2.72
2022-09-14T03:00:44.906Z,1.73
2022-09-14T03:03:48.362Z,1.80
2022-09-14T03:06:52.888Z,2.38
2022-09-14T03:09:56.514Z,3.15
2022-09-14T03:13:01.366Z,1.60
2022-09-14T03:16:12.774Z,2.10
2022-09-14T03:19:17.060Z,1.57
2022-09-14T03:22:19.979Z,1.85
2022-09-14T03:25:23.762Z,2.72
2022-09-14T03:28:27.164Z,2.60
2022-09-14T03:31:30.965Z,2.77
2022-09-14T03:34:35.098Z,3.00
2022-09-14T03:37:39.995Z,3.30
2022-09-14T03:40:43.876Z,2.20
2022-09-14T03:43:48.272Z,2.15
2022-09-14T03:46:52.180Z,2.23
2022-09-14T03:49:56.159Z,3.50
2022-09-14T03:53:00.153Z,2.00
2022-09-14T03:56:12.546Z,2.00
2022-09-14T03:59:15.405Z,2.25
2022-09-14T04:02:18.786Z,1.77
2022-09-14T04:05:22.555Z,3.00
2022-09-14T04:08:27.432Z,1.98
2022-09-14T04:11:32.132Z,2.13
2022-09-14T04:14:36.460Z,2.40
2022-09-14T04:17:41.088Z,1.67
2022-09-14T04:20:44.437Z,1.40
2022-09-14T04:27:12.231Z,1.63
2022-09-14T04:30:16.056Z,1.70
2022-09-14T04:33:19.848Z,1.60
2022-09-14T04:36:24.280Z,1.90
2022-09-14T04:39:28.380Z,1.73
2022-09-14T04:42:31.920Z,2.35
2022-09-14T04:45:37.224Z,1.90
2022-09-14T04:48:41.701Z,1.93
2022-09-14T04:51:46.461Z,1.90
2022-09-14T04:54:50.504Z,1.77
2022-09-14T04:57:54.380Z,2.13
2022-09-14T05:01:12.257Z,2.30
2022-09-14T05:04:16.357Z,1.70
2022-09-14T05:07:19.987Z,1.90
2022-09-14T05:10:24.093Z,2.28
2022-09-14T05:13:27.747Z,2.47
2022-09-14T05:16:34.531Z,2.03
2022-09-14T05:19:37.748Z,1.90
2022-09-14T05:22:41.765Z,5.00
2022-09-14T05:25:45.498Z,3.00
2022-09-14T05:29:01.312Z,3.03
2022-09-14T05:32:05.465Z,2.60
2022-09-14T05:35:09.564Z,2.73
2022-09-14T05:38:13.277Z,3.20
2022-09-14T05:41:17.626Z,2.88
2022-09-14T05:44:21.252Z,3.40
2022-09-14T05:47:24.972Z,2.58
2022-09-14T05:50:28.613Z,2.80
2022-09-14T05:53:32.649Z,1.70
2022-09-14T05:56:36.008Z,2.20
2022-09-14T05:59:40.013Z,1.90
2022-09-14T06:02:50.550Z,2.40
2022-09-14T06:05:58.262Z,2.77
2022-09-14T06:09:02.269Z,1.80
2022-09-14T06:12:06.455Z,1.40
2022-09-14T06:15:11.522Z,1.50
2022-09-14T06:18:15.712Z,4.75
2022-09-14T06:21:20.881Z,4.23
2022-09-14T06:24:25.133Z,4.90
2022-09-14T06:27:28.285Z,6.05
2022-09-14T06:30:32.302Z,5.25
2022-09-14T06:33:36.305Z,7.85
2022-09-14T06:36:40.286Z,8.40
2022-09-14T06:39:43.851Z,4.30
2022-09-14T06:42:48.030Z,4.10
2022-09-14T06:46:08.338Z,5.20
2022-09-14T06:49:18.645Z,4.30
2022-09-14T06:52:22.421Z,3.53
2022-09-14T06:55:26.119Z,3.40
2022-09-14T06:58:29.942Z,3.25
2022-09-14T07:01:34.317Z,3.22
2022-09-14T07:04:37.988Z,4.40
2022-09-14T07:07:42.057Z,4.53
2022-09-14T07:10:55.888Z,3.87
2022-09-14T07:14:00.201Z,1.90
2022-09-14T07:17:03.979Z,1.70
2022-09-14T07:20:08.751Z,2.00
2022-09-14T07:23:14.069Z,3.33
2022-09-14T07:26:24.288Z,2.30
2022-09-14T07:29:28.002Z,2.67
2022-09-14T07:32:31.047Z,1.70
2022-09-14T07:35:34.785Z,2.10
2022-09-14T07:38:53.757Z,2.20
2022-09-14T07:41:58.334Z,2.40
2022-09-14T07:45:02.082Z,2.97
2022-09-14T07:48:06.288Z,2.65
2022-09-14T07:51:12.119Z,3.28
2022-09-14T07:54:17.453Z,3.67
2022-09-14T07:57:39.468Z,3.30
2022-09-14T08:00:45.129Z,2.47
2022-09-14T08:03:49.911Z,3.85
2022-09-14T08:06:53.452Z,2.58
2022-09-14T08:09:57.445Z,3.37
2022-09-14T08:13:01.162Z,3.00
2022-09-14T08:16:06.984Z,3.28
2022-09-14T08:19:20.970Z,2.70
2022-09-14T08:22:24.197Z,2.22
2022-09-14T08:25:27.181Z,2.40
2022-09-14T08:28:31.178Z,3.60
2022-09-14T08:31:38.027Z,2.20
2022-09-14T08:34:41.902Z,2.17
2022-09-14T08:37:45.367Z,1.88
2022-09-14T08:40:49.491Z,2.20
2022-09-14T08:43:53.996Z,1.97
2022-09-14T08:47:00.797Z,2.22
2022-09-14T08:50:12.710Z,2.40
2022-09-14T08:53:16.424Z,2.65
2022-09-14T08:56:25.750Z,2.57
2022-09-14T08:59:41.892Z,2.83
2022-09-14T09:03:07.207Z,4.00
2022-09-14T09:06:22.841Z,4.43
2022-09-14T09:09:43.632Z,4.15
2022-09-14T09:12:51.236Z,3.63
2022-09-14T09:15:59.174Z,4.00
2022-09-14T09:19:11.674Z,4.15
2022-09-14T09:22:18.295Z,4.28
2022-09-14T09:25:25.565Z,3.30
2022-09-14T09:28:30.709Z,5.03
2022-09-14T09:31:37.199Z,4.10
2022-09-14T09:35:02.096Z,3.70
2022-09-14T09:38:37.582Z,4.40
2022-09-14T09:41:58.732Z,5.18
2022-09-14T09:45:06.401Z,3.90
2022-09-14T09:48:11.699Z,2.87
2022-09-14T09:51:23.491Z,3.38
2022-09-14T09:54:31.559Z,3.70
2022-09-14T09:57:37.559Z,4.00
2022-09-14T10:00:41.244Z,4.00
2022-09-14T10:03:52.019Z,4.97
2022-09-14T10:06:58.909Z,5.80
2022-09-14T10:10:07.699Z,5.07
2022-09-14T10:13:35.344Z,5.50
2022-09-14T10:16:43.629Z,5.10
2022-09-14T10:19:53.471Z,4.90
2022-09-14T10:23:02.094Z,4.95
2022-09-14T10:26:16.409Z,4.43
2022-09-14T10:29:22.263Z,4.00
2022-09-14T10:32:27.248Z,4.10
2022-09-14T10:35:34.501Z,2.17
2022-09-14T10:39:16.732Z,2.70
2022-09-14T10:42:43.776Z,2.20
2022-09-14T10:45:51.302Z,2.60
2022-09-14T10:49:13.018Z,2.80
2022-09-14T10:52:49.918Z,2.73
2022-09-14T10:55:53.597Z,1.90
2022-09-14T10:59:23.108Z,1.67
2022-09-14T11:02:56.161Z,2.85
2022-09-14T11:06:42.480Z,4.23
2022-09-14T11:09:45.824Z,4.33
2022-09-14T11:13:26.604Z,27.77
2022-09-14T11:16:51.201Z,29.73
2022-09-14T11:20:48.931Z,18.67
2022-09-14T11:24:14.432Z,7.20
2022-09-14T11:28:06.312Z,5.30
2022-09-14T11:31:18.791Z,5.65
2022-09-14T11:34:28.817Z,6.65
2022-09-14T11:38:06.955Z,7.22
2022-09-14T11:41:28.961Z,7.10
2022-09-14T11:44:42.207Z,5.50
2022-09-14T11:47:54.692Z,5.28
2022-09-14T11:51:09.050Z,6.25
2022-09-14T11:54:24.837Z,6.68
2022-09-14T11:57:33.366Z,6.70
2022-09-14T12:00:46.656Z,4.70
2022-09-14T12:04:05.809Z,4.65
2022-09-14T12:07:09.874Z,4.28
2022-09-14T12:10:16.426Z,4.50
2022-09-14T12:13:22.000Z,5.00
2022-09-14T12:16:25.100Z,5.60
2022-09-14T12:19:29.227Z,5.95
2022-09-14T12:22:38.432Z,6.85
2022-09-14T12:26:01.167Z,7.90
2022-09-14T12:29:28.314Z,6.80
2022-09-14T12:32:44.243Z,6.43
2022-09-14T12:35:48.171Z,6.88
2022-09-14T12:38:52.864Z,7.70
2022-09-14T12:41:57.015Z,7.82
2022-09-14T12:45:38.417Z,24.97
2022-09-14T12:48:51.854Z,7.90
2022-09-14T12:51:55.899Z,6.82
2022-09-14T12:55:38.618Z,7.45
2022-09-14T12:59:00.458Z,5.90
2022-09-14T13:02:31.711Z,6.90
2022-09-14T13:05:35.735Z,6.57
2022-09-14T13:08:38.772Z,6.93
2022-09-14T13:11:42.576Z,6.90
2022-09-14T13:14:56.956Z,7.20
2022-09-14T13:18:05.834Z,8.37
2022-09-14T13:21:20.280Z,8.00
2022-09-14T13:24:27.682Z,8.77
2022-09-14T13:27:36.630Z,9.80
2022-09-14T13:30:44.200Z,12.25
2022-09-14T13:33:53.564Z,11.93
2022-09-14T13:36:58.270Z,11.30
2022-09-14T13:40:02.113Z,9.40
2022-09-14T13:43:06.500Z,8.07
2022-09-14T13:46:12.399Z,23.27
2022-09-14T13:49:16.706Z,12.53
2022-09-14T13:52:22.706Z,11.13
2022-09-14T13:55:29.875Z,7.95
2022-09-14T13:58:35.684Z,12.57
2022-09-14T14:01:41.221Z,20.08
2022-09-14T14:04:49.667Z,26.30
2022-09-14T14:07:53.179Z,11.73
2022-09-14T14:10:56.701Z,15.15
2022-09-14T14:14:17.040Z,14.85
2022-09-14T14:17:25.469Z,8.23
2022-09-14T14:20:29.394Z,7.73
2022-09-14T14:23:33.249Z,8.40
2022-09-14T14:26:37.039Z,8.65
2022-09-14T14:29:41.187Z,7.45
2022-09-14T14:32:44.546Z,7.10
2022-09-14T14:35:49.195Z,7.87
2022-09-14T14:38:52.852Z,7.60
2022-09-14T14:41:56.838Z,6.80
2022-09-14T14:45:01.212Z,6.13
2022-09-14T14:48:05.709Z,5.20
2022-09-14T14:51:14.775Z,5.33
2022-09-14T14:54:19.549Z,6.47
2022-09-14T14:57:23.176Z,7.43
2022-09-14T15:00:26.965Z,6.38
2022-09-14T15:03:30.839Z,5.93
2022-09-14T15:06:36.656Z,5.83
2022-09-14T15:09:40.769Z,7.47
2022-09-14T15:12:44.535Z,5.68
2022-09-14T15:15:47.613Z,5.55
2022-09-14T15:18:50.867Z,5.72
2022-09-14T15:21:57.289Z,6.90
2022-09-14T15:25:04.863Z,6.50
2022-09-14T15:28:09.045Z,6.45
2022-09-14T15:31:13.213Z,6.43
2022-09-14T15:34:16.325Z,6.97
2022-09-14T15:37:19.280Z,7.60
2022-09-14T15:40:22.404Z,8.13
2022-09-14T15:43:25.834Z,9.20
2022-09-14T15:46:29.544Z,8.65
2022-09-14T15:49:33.017Z,8.23
2022-09-14T15:52:38.217Z,9.37
2022-09-14T15:55:46.593Z,9.43
2022-09-14T15:58:49.497Z,9.05
2022-09-14T16:01:53.185Z,9.32
2022-09-14T16:04:56.504Z,8.77
2022-09-14T16:08:00.426Z,9.07
2022-09-14T16:11:05.482Z,7.20
2022-09-14T16:14:11.520Z,6.63
2022-09-14T16:17:16.170Z,7.25
2022-09-14T16:20:21.740Z,8.50
2022-09-14T16:23:25.686Z,8.23
2022-09-14T16:26:33.104Z,9.90
2022-09-14T16:29:36.979Z,9.38
2022-09-14T16:32:40.977Z,7.78
2022-09-14T16:35:44.570Z,9.23
2022-09-14T16:38:48.269Z,9.67
2022-09-14T16:41:52.770Z,9.53
2022-09-14T16:44:56.779Z,9.70
2022-09-14T16:48:00.407Z,8.85
2022-09-14T16:51:04.851Z,9.95
2022-09-14T16:54:09.794Z,9.53
2022-09-14T16:57:13.737Z,9.80
2022-09-14T17:00:17.493Z,8.60
2022-09-14T17:03:21.535Z,9.10
2022-09-14T17:06:30.157Z,8.90
2022-09-14T17:09:33.823Z,9.60
2022-09-14T17:12:37.582Z,9.37
2022-09-14T17:15:41.529Z,10.13
2022-09-14T17:18:49.371Z,10.15
2022-09-14T17:21:54.123Z,7.57
2022-09-14T17:24:57.306Z,6.67
2022-09-14T17:28:01.220Z,7.57
2022-09-14T17:31:08.342Z,7.53
2022-09-14T17:34:14.296Z,6.20
2022-09-14T17:37:18.437Z,6.32
2022-09-14T17:40:21.476Z,5.87
2022-09-14T17:43:24.479Z,6.33
2022-09-14T17:46:29.395Z,7.05
2022-09-14T17:49:33.160Z,7.28
2022-09-14T17:52:36.670Z,6.30
2022-09-14T17:55:40.264Z,5.83
2022-09-14T17:58:44.802Z,6.43
2022-09-14T18:01:49.543Z,6.15
2022-09-14T18:04:53.265Z,6.25
2022-09-14T18:07:57.004Z,6.07
2022-09-14T18:11:09.127Z,6.43
2022-09-14T18:14:16.246Z,6.10
2022-09-14T18:17:20.468Z,5.40
2022-09-14T18:20:24.452Z,4.95
2022-09-14T18:23:29.396Z,5.32
2022-09-14T18:26:33.584Z,6.20
2022-09-14T18:29:37.872Z,6.43
2022-09-14T18:32:41.473Z,6.40
2022-09-14T18:35:45.922Z,7.50
2022-09-14T18:38:51.988Z,8.35
2022-09-14T18:41:57.275Z,8.93
2022-09-14T18:45:00.989Z,9.10
2022-09-14T18:48:05.072Z,9.05
2022-09-14T18:51:09.339Z,7.35
2022-09-14T18:54:14.451Z,7.80
2022-09-14T18:57:20.044Z,7.70
2022-09-14T19:00:24.854Z,6.50
2022-09-14T19:03:28.639Z,5.55
2022-09-14T19:06:34.511Z,4.72
2022-09-14T19:09:38.155Z,4.15
2022-09-14T19:12:43.134Z,4.43
2022-09-14T19:15:46.733Z,4.20
2022-09-14T19:18:51.220Z,3.78
2022-09-14T19:21:54.976Z,3.88
2022-09-14T19:24:58.888Z,4.05
2022-09-14T19:28:02.830Z,4.37
2022-09-14T19:31:14.357Z,4.67
2022-09-14T19:34:18.152Z,5.60
2022-09-14T19:37:21.515Z,5.22
2022-09-14T19:40:25.092Z,4.97
2022-09-14T19:43:29.012Z,5.30
2022-09-14T19:46:32.040Z,5.23
2022-09-14T19:49:36.016Z,5.80
2022-09-14T19:52:38.943Z,5.47
2022-09-14T19:55:41.897Z,5.85
2022-09-14T19:58:47.480Z,6.63
2022-09-14T20:01:51.944Z,5.90
2022-09-14T20:04:55.977Z,8.50
2022-09-14T20:07:59.809Z,9.57
2022-09-14T20:11:19.060Z,12.38
2022-09-14T20:14:25.437Z,11.57
2022-09-14T20:17:29.101Z,10.33
2022-09-14T20:20:36.173Z,9.40
2022-09-14T20:23:52.447Z,7.75
2022-09-14T20:27:03.766Z,5.38
2022-09-14T20:30:09.194Z,3.67
2022-09-14T20:33:12.585Z,3.37
2022-09-14T20:36:20.774Z,2.88
2022-09-14T20:39:24.536Z,2.60
2022-09-14T20:42:28.662Z,2.33
2022-09-14T20:45:32.008Z,1.60
2022-09-14T20:48:35.561Z,1.53
2022-09-14T20:51:39.525Z,1.73
2022-09-14T20:54:43.210Z,1.60
2022-09-14T20:57:46.846Z,1.85
2022-09-14T21:01:01.090Z,9.47
2022-09-14T21:04:10.163Z,11.63
2022-09-14T21:07:13.840Z,12.52
2022-09-14T21:10:16.917Z,12.68
2022-09-14T21:13:20.597Z,9.77
2022-09-14T21:16:25.712Z,9.37
2022-09-14T21:19:29.406Z,8.77
2022-09-14T21:22:32.650Z,7.75
2022-09-14T21:25:35.673Z,7.25
2022-09-14T21:28:40.892Z,5.47
2022-09-14T21:31:45.291Z,6.30
2022-09-14T21:34:49.135Z,7.20
2022-09-14T21:37:52.859Z,6.82
2022-09-14T21:40:57.144Z,6.57
2022-09-14T21:44:00.868Z,6.07
2022-09-14T21:47:05.735Z,5.13
2022-09-14T21:50:09.228Z,5.23
2022-09-14T21:53:12.488Z,4.18
2022-09-14T21:56:16.877Z,3.00
2022-09-14T21:59:22.216Z,2.80
2022-09-14T22:02:25.311Z,1.80
2022-09-14T22:05:28.842Z,2.60
2022-09-14T22:08:34.007Z,3.30
2022-09-14T22:11:39.750Z,3.67
2022-09-14T22:14:43.061Z,3.08
2022-09-14T22:17:47.627Z,3.57
2022-09-14T22:21:01.140Z,4.60
2022-09-14T22:24:08.204Z,3.63
2022-09-14T22:27:11.807Z,2.60
2022-09-14T22:30:15.279Z,3.28
2022-09-14T22:33:19.564Z,3.67
2022-09-14T22:36:24.003Z,2.93
2022-09-14T22:39:27.612Z,18.80
2022-09-14T22:42:32.052Z,6.85
2022-09-14T22:45:35.681Z,5.88
2022-09-14T22:48:39.464Z,3.23
2022-09-14T22:51:42.332Z,1.50
2022-09-14T22:54:45.909Z,1.70
2022-09-14T22:57:48.880Z,1.40
2022-09-14T23:00:52.863Z,1.20
2022-09-14T23:04:01.878Z,1.40
2022-09-14T23:07:05.009Z,1.20
2022-09-14T23:10:09.406Z,1.10
2022-09-14T23:13:13.080Z,1.30
2022-09-14T23:16:19.333Z,1.90
2022-09-14T23:19:22.589Z,7.40
2022-09-14T23:22:26.423Z,1.60
2022-09-14T23:25:29.428Z,1.10
2022-09-14T23:28:34.356Z,1.35
2022-09-14T23:31:38.098Z,1.90
2022-09-14T23:34:41.066Z,1.47
2022-09-14T23:37:44.251Z,2.93
2022-09-14T23:40:50.196Z,2.00
2022-09-14T23:43:54.529Z,2.85
2022-09-14T23:46:57.825Z,1.70
2022-09-14T23:50:00.826Z,1.97
2022-09-14T23:53:03.891Z,2.33
2022-09-14T23:56:07.538Z,1.90
2022-09-14T23:59:13.875Z,2.50
